Time;durP1;ratioP1;P1;durP2;ratioP2;P2;SDS_P1;SDS_P2;PMS_P1;PMS_P2;Temp;Humidity;BMP_temperature;BMP_pressure;BME280_temperature;BME280_humidity;BME280_pressure;Samples;Min_cycle;Max_cycle;Signal;HPM_P1;HPM_P2
2024/01/13 00:02:18;;;;;;;17.97;8.70;;;;;;;;;;5042231;28;20389;-60
2024/01/13 00:04:45;;;;;;;16.97;8.40;;;;;;;;;;5042675;28;20258;-60
2024/01/13 00:07:12;;;;;;;17.53;8.97;;;;;;;;;;5042942;28;20208;-60
2024/01/13 00:09:39;;;;;;;14.60;8.60;;;;;;;;;;5042262;28;20715;-61
2024/01/13 00:12:08;;;;;;;17.57;8.87;;;;;;;;;;5044550;28;20690;-60
2024/01/13 00:14:35;;;;;;;17.40;9.47;;;;;;;;;;5030793;28;20215;-60
2024/01/13 00:17:02;;;;;;;17.07;8.83;;;;;;;;;;5031759;28;20205;-61
2024/01/13 00:19:29;;;;;;;17.37;8.10;;;;;;;;;;5030802;28;20661;-61
2024/01/13 00:21:56;;;;;;;18.37;9.30;;;;;;;;;;5030862;28;20234;-60
2024/01/13 00:24:26;;;;;;;18.33;8.30;;;;;;;;;;5030464;28;20689;-61
2024/01/13 00:26:53;;;;;;;17.63;8.47;;;;;;;;;;5038007;28;20225;-60
2024/01/13 00:29:22;;;;;;;18.03;9.17;;;;;;;;;;5030618;28;20213;-60
2024/01/13 00:31:49;;;;;;;17.30;8.53;;;;;;;;;;5030614;28;20204;-61
2024/01/13 00:34:16;;;;;;;20.10;9.43;;;;;;;;;;5030407;28;20693;-60
2024/01/13 00:36:43;;;;;;;17.67;9.00;;;;;;;;;;5030222;28;20207;-60
2024/01/13 00:39:10;;;;;;;20.40;9.80;;;;;;;;;;5030247;28;20364;-60
2024/01/13 00:41:37;;;;;;;16.67;8.70;;;;;;;;;;5029769;28;20227;-60
2024/01/13 00:44:04;;;;;;;18.43;9.17;;;;;;;;;;5030611;28;20219;-60
2024/01/13 00:46:33;;;;;;;20.23;9.73;;;;;;;;;;5030455;28;20218;-60
2024/01/13 00:49:00;;;;;;;17.20;8.07;;;;;;;;;;5029923;28;20206;-60
2024/01/13 00:51:27;;;;;;;15.90;7.70;;;;;;;;;;5030420;28;20280;-61
2024/01/13 00:53:54;;;;;;;19.90;9.93;;;;;;;;;;5029785;28;20221;-60
2024/01/13 00:56:21;;;;;;;17.27;8.73;;;;;;;;;;5033976;28;20201;-60
2024/01/13 00:58:48;;;;;;;22.13;8.97;;;;;;;;;;5040584;28;20232;-61
2024/01/13 01:01:16;;;;;;;18.57;9.40;;;;;;;;;;5048237;28;20231;-60
2024/01/13 01:03:44;;;;;;;19.33;9.70;;;;;;;;;;5037769;28;20285;-61
2024/01/13 01:06:11;;;;;;;24.50;9.63;;;;;;;;;;5038583;28;20214;-61
2024/01/13 01:08:38;;;;;;;13.10;7.60;;;;;;;;;;5027431;28;20206;-60
2024/01/13 01:11:05;;;;;;;14.77;8.77;;;;;;;;;;5029337;28;20201;-60
2024/01/13 01:13:32;;;;;;;20.17;9.27;;;;;;;;;;5029297;28;20201;-61
2024/01/13 01:15:59;;;;;;;16.93;8.97;;;;;;;;;;5029837;28;20208;-60
2024/01/13 01:18:26;;;;;;;19.33;8.97;;;;;;;;;;5029273;28;20355;-61
2024/01/13 01:20:55;;;;;;;18.40;9.33;;;;;;;;;;5029876;28;20218;-60
2024/01/13 01:23:22;;;;;;;17.47;9.50;;;;;;;;;;5029774;28;20237;-60
2024/01/13 01:25:49;;;;;;;16.20;9.50;;;;;;;;;;5028674;28;21029;-60
2024/01/13 01:28:15;;;;;;;19.70;9.67;;;;;;;;;;5029693;28;20212;-60
2024/01/13 01:30:43;;;;;;;21.63;9.93;;;;;;;;;;5029164;28;20697;-61
2024/01/13 01:33:10;;;;;;;21.80;10.47;;;;;;;;;;5030501;28;20207;-61
2024/01/13 01:35:36;;;;;;;21.83;10.50;;;;;;;;;;5029500;28;20777;-61
2024/01/13 01:38:05;;;;;;;20.67;10.33;;;;;;;;;;5029374;28;20206;-61
2024/01/13 01:40:32;;;;;;;17.03;9.23;;;;;;;;;;5029206;28;20753;-61
2024/01/13 01:42:59;;;;;;;23.37;11.87;;;;;;;;;;5029541;28;20239;-61
2024/01/13 01:45:26;;;;;;;21.30;10.07;;;;;;;;;;5045469;28;20208;-60
2024/01/13 01:47:54;;;;;;;21.10;10.37;;;;;;;;;;5049469;28;20209;-60
2024/01/13 01:50:21;;;;;;;25.43;10.37;;;;;;;;;;5049082;28;20607;-60
2024/01/13 01:52:48;;;;;;;22.77;11.07;;;;;;;;;;5043052;28;20274;-61
2024/01/13 01:55:16;;;;;;;21.17;10.33;;;;;;;;;;5030292;28;20679;-60
2024/01/13 01:57:43;;;;;;;20.53;10.30;;;;;;;;;;5029006;28;20238;-60
2024/01/13 02:00:12;;;;;;;24.07;11.40;;;;;;;;;;5048263;28;20782;-60
2024/01/13 02:02:39;;;;;;;22.40;10.83;;;;;;;;;;5048761;28;20243;-60
2024/01/13 02:05:06;;;;;;;23.83;11.73;;;;;;;;;;5047368;28;20226;-60
2024/01/13 02:07:34;;;;;;;20.80;11.23;;;;;;;;;;5044221;28;20202;-60
2024/01/13 02:10:01;;;;;;;24.87;10.83;;;;;;;;;;5048731;28;20592;-60
2024/01/13 02:12:31;;;;;;;24.57;11.07;;;;;;;;;;5038788;28;20196;-60
2024/01/13 02:14:58;;;;;;;24.33;11.47;;;;;;;;;;5029407;28;20222;-61
2024/01/13 02:17:25;;;;;;;26.07;11.27;;;;;;;;;;5028997;28;20224;-60
2024/01/13 02:19:52;;;;;;;25.27;11.77;;;;;;;;;;5048762;28;20288;-60
2024/01/13 02:22:20;;;;;;;23.70;10.93;;;;;;;;;;5034326;28;20709;-61
2024/01/13 02:24:48;;;;;;;21.17;10.80;;;;;;;;;;5034173;28;20783;-60
2024/01/13 02:27:15;;;;;;;27.20;11.40;;;;;;;;;;5048253;28;20261;-61
2024/01/13 02:29:42;;;;;;;22.53;11.07;;;;;;;;;;5029960;28;20213;-61
2024/01/13 02:32:09;;;;;;;28.13;12.00;;;;;;;;;;5032499;28;20201;-61
2024/01/13 02:34:36;;;;;;;24.37;11.53;;;;;;;;;;5045587;28;20212;-61
2024/01/13 02:37:03;;;;;;;28.63;12.63;;;;;;;;;;5028530;28;20227;-61
2024/01/13 02:39:31;;;;;;;22.90;12.00;;;;;;;;;;5047420;28;20263;-61
2024/01/13 02:41:58;;;;;;;24.73;12.43;;;;;;;;;;5047983;28;20208;-61
2024/01/13 02:44:25;;;;;;;25.10;12.23;;;;;;;;;;5032860;28;20221;-61
2024/01/13 02:46:52;;;;;;;21.47;10.03;;;;;;;;;;5043345;28;20217;-61
2024/01/13 02:49:19;;;;;;;22.67;11.33;;;;;;;;;;5038801;28;20216;-61
2024/01/13 02:51:46;;;;;;;29.50;13.27;;;;;;;;;;5028391;28;20208;-61
2024/01/13 02:54:13;;;;;;;23.40;12.23;;;;;;;;;;5036038;28;20207;-60
2024/01/13 02:56:42;;;;;;;25.10;11.53;;;;;;;;;;5036748;28;20214;-61
2024/01/13 02:59:09;;;;;;;25.43;12.03;;;;;;;;;;5029303;28;20575;-61
2024/01/13 03:01:36;;;;;;;24.33;11.87;;;;;;;;;;5027647;28;20232;-61
2024/01/13 03:04:03;;;;;;;24.00;12.23;;;;;;;;;;5042064;28;20703;-61
2024/01/13 03:06:30;;;;;;;22.87;11.77;;;;;;;;;;5037776;28;20636;-60
2024/01/13 03:08:57;;;;;;;19.97;8.73;;;;;;;;;;5041509;28;20228;-60
2024/01/13 03:11:24;;;;;;;23.70;11.80;;;;;;;;;;5047875;28;20219;-60
2024/01/13 03:16:56;;;;;;;27.73;12.27;;;;;;;;;;5028043;28;20191;-61
2024/01/13 03:19:23;;;;;;;25.80;12.63;;;;;;;;;;5027363;28;20733;-60
2024/01/13 03:21:50;;;;;;;30.97;12.27;;;;;;;;;;5028001;28;20239;-60
2024/01/13 03:24:17;;;;;;;31.03;13.43;;;;;;;;;;5028086;28;20271;-61
2024/01/13 03:26:44;;;;;;;25.90;12.47;;;;;;;;;;5029202;28;20211;-60
2024/01/13 03:29:11;;;;;;;25.40;11.73;;;;;;;;;;5027706;28;20205;-61
2024/01/13 03:31:38;;;;;;;26.50;12.23;;;;;;;;;;5027806;28;20680;-60
2024/01/13 03:34:06;;;;;;;27.37;11.90;;;;;;;;;;5027656;28;20333;-60
2024/01/13 03:36:33;;;;;;;26.10;11.47;;;;;;;;;;5027866;28;20599;-60
2024/01/13 03:39:00;;;;;;;28.37;12.67;;;;;;;;;;5027838;28;20213;-61
2024/01/13 03:41:27;;;;;;;32.20;12.67;;;;;;;;;;5027974;28;20236;-60
2024/01/13 03:43:57;;;;;;;22.63;12.13;;;;;;;;;;5027429;28;20235;-60
2024/01/13 03:46:24;;;;;;;25.63;11.90;;;;;;;;;;5027624;28;20635;-60
2024/01/13 03:48:51;;;;;;;24.17;12.20;;;;;;;;;;5029540;28;20206;-60
2024/01/13 03:51:19;;;;;;;24.80;11.77;;;;;;;;;;5031480;28;20209;-59
2024/01/13 03:53:46;;;;;;;23.07;11.83;;;;;;;;;;5039486;28;20583;-59
2024/01/13 03:56:13;;;;;;;23.10;11.90;;;;;;;;;;5031328;28;20293;-59
2024/01/13 03:58:41;;;;;;;22.37;11.10;;;;;;;;;;5031252;28;20649;-59
2024/01/13 04:01:09;;;;;;;26.10;11.53;;;;;;;;;;5030669;28;20748;-59
2024/01/13 04:03:36;;;;;;;26.47;12.10;;;;;;;;;;5031024;28;20668;-59
2024/01/13 04:06:03;;;;;;;23.93;10.90;;;;;;;;;;5032211;28;20202;-59
2024/01/13 04:08:32;;;;;;;23.17;11.77;;;;;;;;;;5037263;28;20204;-59
2024/01/13 04:10:59;;;;;;;27.67;12.07;;;;;;;;;;5050790;28;20217;-60
2024/01/13 04:13:26;;;;;;;24.10;11.47;;;;;;;;;;5034164;28;20588;-59
2024/01/13 04:15:53;;;;;;;24.60;11.87;;;;;;;;;;5031443;28;20333;-59
2024/01/13 04:18:20;;;;;;;22.03;11.17;;;;;;;;;;5051427;28;20219;-59
2024/01/13 04:20:47;;;;;;;24.47;11.73;;;;;;;;;;5051173;28;20547;-59
2024/01/13 04:23:14;;;;;;;25.50;12.13;;;;;;;;;;5035887;28;20226;-59
2024/01/13 04:25:42;;;;;;;25.93;12.23;;;;;;;;;;5031466;28;20218;-59
2024/01/13 04:28:09;;;;;;;24.10;10.40;;;;;;;;;;5031019;28;20210;-59
2024/01/13 04:30:36;;;;;;;24.03;11.77;;;;;;;;;;5031042;28;20200;-59
2024/01/13 04:33:04;;;;;;;23.40;11.13;;;;;;;;;;5031259;28;20235;-59
2024/01/13 04:35:31;;;;;;;27.23;12.53;;;;;;;;;;5031124;28;20205;-59
2024/01/13 04:37:58;;;;;;;23.77;11.60;;;;;;;;;;5047562;28;20208;-60
2024/01/13 04:40:25;;;;;;;26.40;11.93;;;;;;;;;;5049855;28;20214;-59
2024/01/13 04:42:54;;;;;;;25.97;13.07;;;;;;;;;;5043919;28;20233;-59
2024/01/13 04:45:21;;;;;;;23.77;12.33;;;;;;;;;;5030785;28;20213;-59
2024/01/13 04:47:48;;;;;;;19.27;11.17;;;;;;;;;;5030988;28;20223;-59
2024/01/13 04:50:15;;;;;;;29.63;13.43;;;;;;;;;;5031147;28;20218;-59
2024/01/13 04:52:42;;;;;;;21.60;10.63;;;;;;;;;;5030911;28;20221;-59
2024/01/13 04:55:09;;;;;;;27.87;12.70;;;;;;;;;;5045273;28;20252;-59
2024/01/13 04:57:36;;;;;;;25.50;13.13;;;;;;;;;;5033059;28;20308;-59
2024/01/13 05:00:05;;;;;;;26.67;12.53;;;;;;;;;;5030593;28;20235;-62
2024/01/13 05:02:32;;;;;;;24.57;12.13;;;;;;;;;;5030362;28;20242;-59
2024/01/13 05:04:59;;;;;;;24.83;11.57;;;;;;;;;;5038423;28;20206;-60
2024/01/13 05:07:26;;;;;;;27.30;12.77;;;;;;;;;;5031755;28;20205;-60
2024/01/13 05:09:53;;;;;;;25.07;12.03;;;;;;;;;;5013988;28;20242;-60
2024/01/13 05:12:20;;;;;;;25.83;12.00;;;;;;;;;;5030378;28;20216;-60
2024/01/13 05:14:47;;;;;;;25.93;12.37;;;;;;;;;;5039985;28;20204;-60
2024/01/13 05:17:16;;;;;;;24.93;11.83;;;;;;;;;;5040077;28;20239;-60
2024/01/13 05:19:43;;;;;;;23.93;12.03;;;;;;;;;;5050117;28;20224;-61
2024/01/13 05:22:10;;;;;;;27.17;12.50;;;;;;;;;;5050310;28;20219;-60
2024/01/13 05:24:37;;;;;;;24.17;11.67;;;;;;;;;;5037216;28;20760;-60
2024/01/13 05:27:04;;;;;;;24.30;11.33;;;;;;;;;;5029800;28;20213;-61
2024/01/13 05:29:31;;;;;;;25.43;12.50;;;;;;;;;;5038792;28;20202;-60
2024/01/13 05:31:58;;;;;;;25.97;12.60;;;;;;;;;;5048655;28;20318;-60
2024/01/13 05:34:27;;;;;;;31.93;13.30;;;;;;;;;;5049449;28;20596;-61
2024/01/13 05:36:54;;;;;;;30.00;12.93;;;;;;;;;;5042608;28;20692;-60
2024/01/13 05:39:21;;;;;;;31.10;12.73;;;;;;;;;;5031642;28;20212;-61
2024/01/13 05:41:48;;;;;;;27.13;12.33;;;;;;;;;;5029910;28;20209;-60
2024/01/13 05:44:15;;;;;;;23.90;12.43;;;;;;;;;;5029474;28;20232;-60
2024/01/13 05:46:42;;;;;;;33.03;12.77;;;;;;;;;;5029793;28;20210;-60
2024/01/13 05:49:09;;;;;;;26.63;12.73;;;;;;;;;;5039041;28;20288;-60
2024/01/13 05:51:37;;;;;;;24.60;11.77;;;;;;;;;;5048309;28;20206;-60
2024/01/13 05:54:05;;;;;;;22.47;11.80;;;;;;;;;;5021702;28;20484;-61
2024/01/13 05:56:32;;;;;;;24.80;12.23;;;;;;;;;;5044185;28;20254;-60
2024/01/13 05:58:59;;;;;;;23.03;11.33;;;;;;;;;;5045230;28;20228;-60
2024/01/13 06:01:26;;;;;;;26.20;11.83;;;;;;;;;;5028890;28;20239;-61
2024/01/13 06:03:53;;;;;;;25.37;11.90;;;;;;;;;;5029206;28;20740;-60
2024/01/13 06:06:20;;;;;;;26.67;12.73;;;;;;;;;;5030603;28;20216;-61
2024/01/13 06:08:48;;;;;;;25.23;12.23;;;;;;;;;;5029149;28;20212;-60
2024/01/13 06:11:16;;;;;;;29.57;12.30;;;;;;;;;;5047731;28;20211;-60
2024/01/13 06:13:43;;;;;;;27.07;12.53;;;;;;;;;;5043506;28;20201;-60
2024/01/13 06:16:10;;;;;;;28.43;12.77;;;;;;;;;;5045850;28;20207;-60
2024/01/13 06:18:37;;;;;;;27.10;11.73;;;;;;;;;;5029179;28;20209;-60
2024/01/13 06:21:05;;;;;;;17.30;7.97;;;;;;;;;;5039297;28;20287;-60
2024/01/13 06:23:35;;;;;;;24.10;10.03;;;;;;;;;;5028517;28;20231;-60
2024/01/13 06:26:03;;;;;;;24.07;11.80;;;;;;;;;;5044194;28;20212;-61
2024/01/13 06:28:30;;;;;;;24.43;11.47;;;;;;;;;;5029245;28;20216;-61
2024/01/13 06:30:57;;;;;;;23.60;11.67;;;;;;;;;;5034036;28;20207;-60
2024/01/13 06:33:25;;;;;;;23.30;11.60;;;;;;;;;;5029096;28;20242;-60
2024/01/13 06:35:52;;;;;;;21.40;11.37;;;;;;;;;;5028646;28;20253;-60
2024/01/13 06:38:19;;;;;;;22.60;10.03;;;;;;;;;;5028668;28;20677;-60
2024/01/13 06:40:46;;;;;;;26.20;10.93;;;;;;;;;;5031588;28;20208;-60
2024/01/13 06:43:14;;;;;;;25.47;11.43;;;;;;;;;;5047701;28;20207;-60
2024/01/13 06:45:41;;;;;;;15.77;7.63;;;;;;;;;;5047716;28;20211;-60
2024/01/13 06:48:08;;;;;;;20.80;10.60;;;;;;;;;;5047853;28;20753;-60
2024/01/13 06:50:35;;;;;;;22.87;10.57;;;;;;;;;;5044304;28;20215;-60
2024/01/13 06:53:02;;;;;;;21.50;11.00;;;;;;;;;;5046880;28;20207;-59
2024/01/13 06:55:29;;;;;;;18.77;10.10;;;;;;;;;;5045845;28;20701;-60
2024/01/13 06:57:56;;;;;;;23.10;10.03;;;;;;;;;;5047937;28;20234;-60
2024/01/13 07:00:25;;;;;;;22.33;9.73;;;;;;;;;;5041449;28;20217;-60
2024/01/13 07:02:52;;;;;;;20.10;9.60;;;;;;;;;;5032106;28;20245;-60
2024/01/13 07:05:19;;;;;;;23.20;10.50;;;;;;;;;;5027727;28;20230;-60
2024/01/13 07:07:46;;;;;;;22.93;10.27;;;;;;;;;;5027985;28;20215;-59
2024/01/13 07:10:13;;;;;;;19.73;9.23;;;;;;;;;;5028897;28;20210;-60
2024/01/13 07:12:40;;;;;;;25.23;10.67;;;;;;;;;;5026829;28;20246;-62
2024/01/13 07:15:08;;;;;;;19.43;9.27;;;;;;;;;;5027773;28;20664;-61
2024/01/13 07:17:37;;;;;;;19.07;9.37;;;;;;;;;;5009964;28;20706;-60
2024/01/13 07:20:04;;;;;;;18.33;9.90;;;;;;;;;;5022489;28;20204;-60
2024/01/13 07:22:31;;;;;;;14.90;8.37;;;;;;;;;;5027077;28;20291;-61
2024/01/13 07:24:58;;;;;;;20.03;9.83;;;;;;;;;;5031033;28;20231;-60
2024/01/13 07:27:26;;;;;;;17.23;9.23;;;;;;;;;;5031386;28;20226;-60
2024/01/13 07:29:54;;;;;;;19.47;9.60;;;;;;;;;;5031697;28;20301;-60
2024/01/13 07:32:20;;;;;;;20.83;9.80;;;;;;;;;;5040934;28;20217;-60
2024/01/13 07:34:49;;;;;;;21.33;10.43;;;;;;;;;;5051502;28;20217;-60
2024/01/13 07:37:16;;;;;;;19.03;9.73;;;;;;;;;;5040292;28;20209;-60
2024/01/13 07:39:44;;;;;;;19.30;9.07;;;;;;;;;;5041662;28;20202;-60
2024/01/13 07:42:11;;;;;;;17.30;9.73;;;;;;;;;;5037793;28;20813;-60
2024/01/13 07:44:38;;;;;;;16.13;9.20;;;;;;;;;;5051264;28;20269;-60
2024/01/13 07:47:06;;;;;;;21.17;9.70;;;;;;;;;;5043211;28;20214;-59
2024/01/13 07:49:33;;;;;;;19.93;10.07;;;;;;;;;;5031234;28;20265;-60
2024/01/13 07:52:01;;;;;;;21.07;9.67;;;;;;;;;;5031350;28;20209;-60
2024/01/13 07:54:28;;;;;;;16.17;8.80;;;;;;;;;;5028746;28;20333;-60
2024/01/13 07:57:02;;;;;;;19.30;8.40;;;;;;;;;;5031028;28;20222;-60
2024/01/13 07:59:29;;;;;;;16.97;9.57;;;;;;;;;;5029067;28;20211;-61
2024/01/13 08:01:57;;;;;;;15.97;8.90;;;;;;;;;;5030927;28;20243;-60
2024/01/13 08:04:24;;;;;;;14.67;8.03;;;;;;;;;;5030819;28;20317;-60
2024/01/13 08:06:51;;;;;;;17.43;9.37;;;;;;;;;;5033370;28;20206;-59
2024/01/13 08:09:19;;;;;;;16.17;8.67;;;;;;;;;;5030736;28;20204;-60
2024/01/13 08:11:46;;;;;;;18.77;9.40;;;;;;;;;;5031257;28;20296;-60
2024/01/13 08:14:13;;;;;;;16.77;8.57;;;;;;;;;;5024221;28;20296;-60
2024/01/13 08:16:42;;;;;;;18.57;9.37;;;;;;;;;;5034751;28;20214;-61
2024/01/13 08:19:09;;;;;;;19.97;9.50;;;;;;;;;;5029885;28;20219;-60
2024/01/13 08:21:37;;;;;;;17.37;9.53;;;;;;;;;;5030517;28;20630;-62
2024/01/13 08:24:04;;;;;;;19.80;9.00;;;;;;;;;;5028756;28;20226;-60
2024/01/13 08:26:32;;;;;;;19.50;8.83;;;;;;;;;;5030851;28;20211;-60
2024/01/13 08:28:59;;;;;;;9.57;5.80;;;;;;;;;;5034300;28;20864;-61
2024/01/13 08:31:26;;;;;;;20.83;9.63;;;;;;;;;;5030425;28;20219;-60
2024/01/13 08:33:53;;;;;;;20.07;9.57;;;;;;;;;;5030956;28;20206;-60
2024/01/13 08:36:20;;;;;;;16.33;9.03;;;;;;;;;;5034314;28;20211;-61
2024/01/13 08:38:47;;;;;;;17.83;8.80;;;;;;;;;;5035904;28;20203;-61
2024/01/13 08:41:14;;;;;;;18.07;9.30;;;;;;;;;;5037836;28;20211;-60
2024/01/13 08:43:43;;;;;;;19.90;10.80;;;;;;;;;;5029560;28;20208;-60
2024/01/13 08:46:11;;;;;;;19.30;9.33;;;;;;;;;;5036564;28;20752;-60
2024/01/13 08:48:38;;;;;;;18.57;8.73;;;;;;;;;;5035277;28;20203;-60
2024/01/13 08:51:05;;;;;;;18.57;9.73;;;;;;;;;;5030542;28;20219;-60
2024/01/13 08:53:33;;;;;;;16.97;9.53;;;;;;;;;;5030639;28;20212;-60
2024/01/13 08:56:00;;;;;;;16.30;8.63;;;;;;;;;;5030954;28;20262;-60
2024/01/13 08:58:27;;;;;;;17.97;8.53;;;;;;;;;;5034735;28;20237;-60
2024/01/13 09:00:56;;;;;;;17.90;9.20;;;;;;;;;;5013795;28;20246;-60
2024/01/13 09:03:25;;;;;;;19.13;9.13;;;;;;;;;;5029498;28;20265;-60
2024/01/13 09:05:53;;;;;;;16.97;8.43;;;;;;;;;;5031230;28;20318;-60
2024/01/13 09:08:20;;;;;;;15.93;8.57;;;;;;;;;;5029831;28;20690;-60
2024/01/13 09:10:47;;;;;;;17.23;9.27;;;;;;;;;;5029588;28;20304;-60
2024/01/13 09:13:14;;;;;;;17.97;8.33;;;;;;;;;;5029674;28;20208;-60
2024/01/13 09:15:41;;;;;;;16.17;8.40;;;;;;;;;;5029434;28;20228;-60
2024/01/13 09:18:09;;;;;;;17.70;9.07;;;;;;;;;;5041479;28;20215;-60
2024/01/13 09:20:36;;;;;;;18.43;9.40;;;;;;;;;;5030839;28;20313;-60
2024/01/13 09:23:04;;;;;;;16.30;8.90;;;;;;;;;;5040481;28;20211;-60
2024/01/13 09:25:31;;;;;;;16.00;8.57;;;;;;;;;;5029609;28;20239;-60
2024/01/13 09:27:58;;;;;;;18.73;8.93;;;;;;;;;;5041591;28;20214;-60
2024/01/13 09:30:25;;;;;;;16.87;7.73;;;;;;;;;;5029035;28;20685;-60
2024/01/13 09:32:52;;;;;;;14.27;8.00;;;;;;;;;;5028935;28;20287;-60
2024/01/13 09:35:21;;;;;;;14.63;6.97;;;;;;;;;;5029336;28;20316;-61
2024/01/13 09:37:48;;;;;;;15.77;8.43;;;;;;;;;;5025933;28;20209;-61
2024/01/13 09:40:19;;;;;;;15.20;8.37;;;;;;;;;;5029537;28;20212;-61
2024/01/13 09:42:50;;;;;;;16.67;9.03;;;;;;;;;;5035447;28;20281;-61
2024/01/13 09:45:18;;;;;;;12.60;7.43;;;;;;;;;;5028285;28;20229;-61
2024/01/13 09:47:45;;;;;;;17.50;8.20;;;;;;;;;;5042314;28;20213;-62
2024/01/13 09:50:12;;;;;;;15.77;8.53;;;;;;;;;;5041996;28;20218;-62
2024/01/13 09:52:41;;;;;;;14.10;8.30;;;;;;;;;;5040749;28;20203;-61
2024/01/13 09:55:09;;;;;;;16.00;9.30;;;;;;;;;;5029579;28;20223;-62
2024/01/13 09:57:37;;;;;;;20.83;10.10;;;;;;;;;;5028751;28;20242;-61
2024/01/13 10:00:04;;;;;;;18.00;9.77;;;;;;;;;;5028150;28;20536;-61
2024/01/13 10:02:31;;;;;;;14.47;8.43;;;;;;;;;;5039363;28;20249;-61
2024/01/13 10:04:58;;;;;;;16.80;8.90;;;;;;;;;;5029471;28;20324;-61
2024/01/13 10:07:26;;;;;;;16.40;8.50;;;;;;;;;;5028445;28;20296;-61
2024/01/13 10:09:54;;;;;;;13.20;7.33;;;;;;;;;;5028504;28;20686;-61
2024/01/13 10:12:23;;;;;;;16.07;8.70;;;;;;;;;;5046431;28;20219;-62
2024/01/13 10:14:50;;;;;;;16.00;7.27;;;;;;;;;;5029820;28;20212;-61
2024/01/13 10:17:17;;;;;;;11.73;6.70;;;;;;;;;;5028412;28;20584;-61
2024/01/13 10:19:44;;;;;;;15.30;7.70;;;;;;;;;;5028168;28;20219;-61
2024/01/13 10:22:11;;;;;;;13.33;7.73;;;;;;;;;;5035682;28;20200;-61
2024/01/13 10:24:38;;;;;;;15.07;7.37;;;;;;;;;;5033519;28;20631;-61
2024/01/13 10:27:08;;;;;;;12.87;8.20;;;;;;;;;;5028239;28;20215;-62
2024/01/13 10:29:36;;;;;;;12.60;7.97;;;;;;;;;;5029720;28;20239;-61
2024/01/13 10:32:03;;;;;;;15.20;7.37;;;;;;;;;;5043447;28;20713;-61
2024/01/13 10:34:30;;;;;;;14.20;7.33;;;;;;;;;;5034429;28;20213;-61
2024/01/13 10:37:08;;;;;;;9.07;5.90;;;;;;;;;;5028343;28;20307;-61
2024/01/13 10:39:35;;;;;;;9.57;6.10;;;;;;;;;;5030141;28;20276;-61
2024/01/13 10:42:03;;;;;;;9.77;5.73;;;;;;;;;;5038511;28;20215;-61
2024/01/13 10:44:32;;;;;;;9.37;4.83;;;;;;;;;;5040234;28;20269;-61
2024/01/13 10:47:00;;;;;;;7.83;5.20;;;;;;;;;;5042568;28;20203;-61
2024/01/13 10:49:29;;;;;;;12.87;5.10;;;;;;;;;;5028535;28;20208;-61
2024/01/13 10:51:58;;;;;;;8.63;5.23;;;;;;;;;;5030862;28;20311;-59
2024/01/13 10:54:25;;;;;;;8.73;5.33;;;;;;;;;;5027389;28;20212;-63
2024/01/13 10:56:53;;;;;;;6.90;4.70;;;;;;;;;;5027202;28;20219;-60
2024/01/13 10:59:20;;;;;;;6.13;4.57;;;;;;;;;;5027616;28;20242;-60
2024/01/13 11:01:50;;;;;;;5.47;4.40;;;;;;;;;;5041704;28;20240;-59
2024/01/13 11:04:18;;;;;;;6.20;4.90;;;;;;;;;;5037452;28;20214;-60
2024/01/13 11:06:45;;;;;;;6.37;4.70;;;;;;;;;;5027481;28;20309;-60
2024/01/13 11:09:14;;;;;;;8.93;4.60;;;;;;;;;;5028436;28;20223;-60
2024/01/13 11:11:43;;;;;;;6.13;4.33;;;;;;;;;;5029566;28;20667;-59
2024/01/13 11:14:13;;;;;;;6.57;4.23;;;;;;;;;;5030324;28;20223;-60
2024/01/13 11:16:44;;;;;;;5.03;3.77;;;;;;;;;;5029423;28;20208;-61
2024/01/13 11:19:13;;;;;;;4.37;3.87;;;;;;;;;;5035650;28;20212;-59
2024/01/13 11:21:45;;;;;;;3.70;3.40;;;;;;;;;;5033362;28;20210;-66
2024/01/13 11:24:13;;;;;;;4.30;3.53;;;;;;;;;;5038990;28;20378;-62
2024/01/13 11:26:43;;;;;;;6.83;3.57;;;;;;;;;;5045646;28;20318;-62
2024/01/13 11:29:16;;;;;;;3.87;3.47;;;;;;;;;;5039320;28;20211;-61
2024/01/13 11:31:45;;;;;;;5.83;3.30;;;;;;;;;;5034371;28;20697;-61
2024/01/13 11:34:14;;;;;;;4.57;3.90;;;;;;;;;;5039525;28;20204;-63
2024/01/13 11:36:42;;;;;;;4.80;3.53;;;;;;;;;;5027173;28;20241;-61
2024/01/13 11:39:09;;;;;;;4.50;3.47;;;;;;;;;;5027013;28;20218;-61
2024/01/13 11:41:40;;;;;;;4.20;3.50;;;;;;;;;;5027011;28;20215;-61
2024/01/13 11:44:08;;;;;;;4.17;3.80;;;;;;;;;;5030409;28;20307;-61
2024/01/13 11:46:38;;;;;;;7.43;4.07;;;;;;;;;;5027312;28;20235;-61
2024/01/13 11:49:05;;;;;;;9.40;4.67;;;;;;;;;;5027286;28;20761;-61
2024/01/13 11:51:51;;;;;;;12.03;6.53;;;;;;;;;;5027094;28;20215;-61
2024/01/13 11:54:19;;;;;;;9.73;5.63;;;;;;;;;;5035806;28;20222;-61
2024/01/13 11:56:48;;;;;;;11.37;5.40;;;;;;;;;;5028330;28;20256;-61
2024/01/13 11:59:16;;;;;;;9.60;6.00;;;;;;;;;;5026152;28;20234;-63
2024/01/13 12:01:43;;;;;;;10.23;5.97;;;;;;;;;;5026894;28;20239;-61
2024/01/13 12:04:10;;;;;;;6.13;5.00;;;;;;;;;;5028224;28;20956;-61
2024/01/13 12:06:37;;;;;;;8.17;4.93;;;;;;;;;;5027133;28;20227;-61
2024/01/13 12:09:04;;;;;;;6.63;5.33;;;;;;;;;;5036197;28;20208;-61
2024/01/13 12:11:33;;;;;;;7.77;4.83;;;;;;;;;;5034053;28;20195;-61
2024/01/13 12:14:00;;;;;;;7.83;5.40;;;;;;;;;;5038033;28;20215;-61
2024/01/13 12:16:27;;;;;;;9.73;5.30;;;;;;;;;;5030518;28;20208;-61
2024/01/13 12:18:54;;;;;;;6.83;4.70;;;;;;;;;;5030392;28;20212;-62
2024/01/13 12:21:22;;;;;;;7.20;5.03;;;;;;;;;;5029993;28;20278;-61
2024/01/13 12:23:49;;;;;;;7.13;5.20;;;;;;;;;;5030484;28;20211;-61
2024/01/13 12:26:16;;;;;;;6.53;4.90;;;;;;;;;;5036201;28;20239;-59
2024/01/13 12:28:45;;;;;;;6.87;4.83;;;;;;;;;;5039844;28;20214;-62
2024/01/13 12:31:12;;;;;;;9.60;5.00;;;;;;;;;;5029881;28;20216;-60
2024/01/13 12:33:39;;;;;;;10.57;5.63;;;;;;;;;;5031669;28;20211;-60
2024/01/13 12:36:07;;;;;;;12.93;8.00;;;;;;;;;;5029774;28;20207;-61
2024/01/13 12:38:34;;;;;;;10.77;7.00;;;;;;;;;;5048240;28;20222;-61
2024/01/13 12:41:01;;;;;;;11.07;6.43;;;;;;;;;;5032609;28;20212;-61
2024/01/13 12:43:28;;;;;;;10.17;6.33;;;;;;;;;;5049928;28;20681;-61
2024/01/13 12:45:58;;;;;;;11.63;5.97;;;;;;;;;;5035982;28;20585;-61
2024/01/13 12:48:27;;;;;;;10.90;6.60;;;;;;;;;;5048014;28;20218;-60
2024/01/13 12:50:54;;;;;;;11.00;7.30;;;;;;;;;;5034835;28;20219;-60
2024/01/13 12:53:26;;;;;;;12.17;6.37;;;;;;;;;;5045073;28;20212;-59
2024/01/13 12:55:53;;;;;;;15.10;7.50;;;;;;;;;;5041373;28;20277;-60
2024/01/13 12:58:21;;;;;;;14.50;8.00;;;;;;;;;;5046006;28;20235;-60
2024/01/13 13:00:48;;;;;;;12.00;7.00;;;;;;;;;;5029828;28;20215;-61
2024/01/13 13:03:16;;;;;;;9.43;6.57;;;;;;;;;;5030275;28;20708;-61
2024/01/13 13:05:43;;;;;;;13.13;6.47;;;;;;;;;;5034901;28;20228;-60
2024/01/13 13:08:10;;;;;;;10.83;5.63;;;;;;;;;;5030295;28;20208;-61
2024/01/13 13:10:37;;;;;;;12.70;5.10;;;;;;;;;;5029596;28;20247;-60
2024/01/13 13:13:06;;;;;;;7.93;5.27;;;;;;;;;;5029945;28;20340;-60
2024/01/13 13:15:33;;;;;;;5.50;4.93;;;;;;;;;;5030319;28;20209;-61
2024/01/13 13:18:00;;;;;;;9.27;5.40;;;;;;;;;;5029988;28;20608;-61
2024/01/13 13:20:35;;;;;;;7.00;5.53;;;;;;;;;;5029458;28;20250;-61
2024/01/13 13:23:06;;;;;;;11.90;5.87;;;;;;;;;;5029183;28;20246;-60
2024/01/13 13:25:35;;;;;;;9.27;5.00;;;;;;;;;;5039563;28;20281;-62
2024/01/13 13:28:03;;;;;;;10.23;6.13;;;;;;;;;;5034944;28;20216;-64
2024/01/13 13:30:30;;;;;;;9.43;6.50;;;;;;;;;;5032060;28;20601;-63
2024/01/13 13:32:57;;;;;;;6.33;5.63;;;;;;;;;;5030075;28;20212;-62
2024/01/13 13:35:24;;;;;;;8.60;5.93;;;;;;;;;;5034333;28;20219;-62
2024/01/13 13:37:54;;;;;;;11.77;6.17;;;;;;;;;;5029976;28;20223;-63
2024/01/13 13:40:21;;;;;;;17.43;7.90;;;;;;;;;;5037276;28;20199;-61
2024/01/13 13:42:48;;;;;;;21.90;10.93;;;;;;;;;;5048035;28;20282;-61
2024/01/13 13:45:16;;;;;;;15.17;9.40;;;;;;;;;;5029407;28;20688;-61
2024/01/13 13:47:43;;;;;;;16.40;8.90;;;;;;;;;;5029895;28;20240;-61
2024/01/13 13:50:10;;;;;;;15.57;9.10;;;;;;;;;;5029946;28;20215;-61
2024/01/13 13:52:37;;;;;;;12.73;7.00;;;;;;;;;;5029882;28;20201;-60
2024/01/13 13:55:06;;;;;;;13.07;7.80;;;;;;;;;;5034069;28;20969;-61
2024/01/13 13:57:33;;;;;;;12.37;7.80;;;;;;;;;;5045673;28;20618;-60
2024/01/13 14:00:00;;;;;;;12.80;7.73;;;;;;;;;;5043302;28;20652;-60
2024/01/13 14:02:27;;;;;;;19.93;10.20;;;;;;;;;;5032367;28;20240;-61
2024/01/13 14:04:54;;;;;;;20.20;10.40;;;;;;;;;;5029353;28;20200;-61
2024/01/13 14:07:21;;;;;;;14.90;8.40;;;;;;;;;;5042254;28;20235;-63
2024/01/13 14:09:49;;;;;;;16.57;8.53;;;;;;;;;;5031867;28;20721;-61
2024/01/13 14:12:17;;;;;;;19.60;9.50;;;;;;;;;;5028963;28;20208;-61
2024/01/13 14:14:44;;;;;;;29.03;12.20;;;;;;;;;;5032356;28;20222;-62
2024/01/13 14:17:12;;;;;;;22.10;10.93;;;;;;;;;;5029130;28;20200;-62
2024/01/13 14:19:39;;;;;;;23.30;11.60;;;;;;;;;;5026268;28;20216;-63
2024/01/13 14:22:06;;;;;;;23.37;10.53;;;;;;;;;;5033162;28;20224;-62
2024/01/13 14:24:33;;;;;;;24.60;11.53;;;;;;;;;;5047813;28;20207;-62
2024/01/13 14:27:00;;;;;;;19.03;9.27;;;;;;;;;;5028722;28;20239;-60
2024/01/13 14:29:28;;;;;;;13.47;7.33;;;;;;;;;;5048146;28;20211;-64
2024/01/13 14:31:55;;;;;;;20.47;9.03;;;;;;;;;;5027805;28;20645;-61